Argyle, Texas
Current Conditions -  °F | °C
As of 9:53 AM on Thursday 27 Nov 2014 (Local Time) from KDTO Reporting Station
Clear Clear  
Wind Chill: 41°   Ceiling: Unl
Heat Index: 45°   Visibility: 10mi
Dew Point: 25°   Wind: 7mph
Humidity: 46%   Direction: 70°ENE
Pressure: 30.56"   Gusts: NA
Location:  33.12°N, 97.18°W
Report Text: KDTO 271553Z 07006KT 10SM CLR 07/M04 A3056 RMK AO2 SLP349 T00721039
Loading
Personal Weather Stations






























Interactive Weather Map New forecast layout! Learn more

10-Day Weather Forecast

Advertisements
Track Severe Weather on mobile